sensor_id;sensor_type;location;lat;lon;timestamp;temperature;humidity
26641;DHT22;14269;47.358;0.724;2023-07-31T00:00:43;21.0;57.0
26641;DHT22;14269;47.358;0.724;2023-07-31T00:03:15;21.0;57.0
26641;DHT22;14269;47.358;0.724;2023-07-31T00:05:46;21.0;58.0
26641;DHT22;14269;47.358;0.724;2023-07-31T00:08:18;21.0;57.0
26641;DHT22;14269;47.358;0.724;2023-07-31T00:10:51;21.0;57.0
26641;DHT22;14269;47.358;0.724;2023-07-31T00:13:32;21.0;58.0
26641;DHT22;14269;47.358;0.724;2023-07-31T00:16:03;21.0;58.0
26641;DHT22;14269;47.358;0.724;2023-07-31T00:18:35;21.0;58.0
26641;DHT22;14269;47.358;0.724;2023-07-31T00:21:06;21.0;58.0
26641;DHT22;14269;47.358;0.724;2023-07-31T00:23:38;21.0;58.0
26641;DHT22;14269;47.358;0.724;2023-07-31T00:26:10;21.0;58.0
26641;DHT22;14269;47.358;0.724;2023-07-31T00:28:41;21.0;58.0
26641;DHT22;14269;47.358;0.724;2023-07-31T00:31:13;21.0;59.0
26641;DHT22;14269;47.358;0.724;2023-07-31T00:33:45;21.0;58.0
26641;DHT22;14269;47.358;0.724;2023-07-31T00:36:18;20.0;59.0
26641;DHT22;14269;47.358;0.724;2023-07-31T00:38:58;20.0;60.0
26641;DHT22;14269;47.358;0.724;2023-07-31T00:41:30;20.0;59.0
26641;DHT22;14269;47.358;0.724;2023-07-31T00:44:01;20.0;59.0
26641;DHT22;14269;47.358;0.724;2023-07-31T00:46:33;20.0;59.0
26641;DHT22;14269;47.358;0.724;2023-07-31T00:49:05;20.0;60.0
26641;DHT22;14269;47.358;0.724;2023-07-31T00:51:46;20.0;59.0
26641;DHT22;14269;47.358;0.724;2023-07-31T00:54:18;20.0;60.0
26641;DHT22;14269;47.358;0.724;2023-07-31T00:56:51;20.0;60.0
26641;DHT22;14269;47.358;0.724;2023-07-31T00:59:31;20.0;60.0
26641;DHT22;14269;47.358;0.724;2023-07-31T01:02:04;20.0;61.0
26641;DHT22;14269;47.358;0.724;2023-07-31T01:04:45;20.0;61.0
26641;DHT22;14269;47.358;0.724;2023-07-31T01:07:24;20.0;61.0
26641;DHT22;14269;47.358;0.724;2023-07-31T01:10:04;20.0;60.0
26641;DHT22;14269;47.358;0.724;2023-07-31T01:12:41;20.0;60.0
26641;DHT22;14269;47.358;0.724;2023-07-31T01:15:22;20.0;61.0
26641;DHT22;14269;47.358;0.724;2023-07-31T01:17:53;20.0;61.0
26641;DHT22;14269;47.358;0.724;2023-07-31T01:20:26;20.0;61.0
26641;DHT22;14269;47.358;0.724;2023-07-31T01:23:27;20.0;62.0
26641;DHT22;14269;47.358;0.724;2023-07-31T01:26:12;20.0;62.0
26641;DHT22;14269;47.358;0.724;2023-07-31T01:29:02;20.0;62.0
26641;DHT22;14269;47.358;0.724;2023-07-31T01:31:44;20.0;62.0
26641;DHT22;14269;47.358;0.724;2023-07-31T01:34:25;20.0;62.0
26641;DHT22;14269;47.358;0.724;2023-07-31T01:37:06;20.0;63.0
26641;DHT22;14269;47.358;0.724;2023-07-31T01:39:38;20.0;63.0
26641;DHT22;14269;47.358;0.724;2023-07-31T01:42:09;20.0;63.0
26641;DHT22;14269;47.358;0.724;2023-07-31T01:44:41;20.0;63.0
26641;DHT22;14269;47.358;0.724;2023-07-31T01:47:13;20.0;62.0
26641;DHT22;14269;47.358;0.724;2023-07-31T01:49:44;20.0;62.0
26641;DHT22;14269;47.358;0.724;2023-07-31T01:52:16;20.0;63.0
26641;DHT22;14269;47.358;0.724;2023-07-31T01:54:47;20.0;63.0
26641;DHT22;14269;47.358;0.724;2023-07-31T01:57:19;20.0;63.0
26641;DHT22;14269;47.358;0.724;2023-07-31T01:59:53;20.0;62.0
26641;DHT22;14269;47.358;0.724;2023-07-31T02:02:33;20.0;61.0
26641;DHT22;14269;47.358;0.724;2023-07-31T02:05:05;20.0;62.0
26641;DHT22;14269;47.358;0.724;2023-07-31T02:07:46;20.0;62.0
26641;DHT22;14269;47.358;0.724;2023-07-31T02:10:18;20.0;63.0
26641;DHT22;14269;47.358;0.724;2023-07-31T02:12:49;19.0;63.0
26641;DHT22;14269;47.358;0.724;2023-07-31T02:15:21;20.0;63.0
26641;DHT22;14269;47.358;0.724;2023-07-31T02:17:53;20.0;63.0
26641;DHT22;14269;47.358;0.724;2023-07-31T02:20:24;20.0;64.0
26641;DHT22;14269;47.358;0.724;2023-07-31T02:22:56;19.0;64.0
26641;DHT22;14269;47.358;0.724;2023-07-31T02:25:28;19.0;64.0
26641;DHT22;14269;47.358;0.724;2023-07-31T02:27:59;19.0;64.0
26641;DHT22;14269;47.358;0.724;2023-07-31T02:30:31;19.0;64.0
26641;DHT22;14269;47.358;0.724;2023-07-31T02:33:04;19.0;64.0
26641;DHT22;14269;47.358;0.724;2023-07-31T02:35:44;19.0;64.0
26641;DHT22;14269;47.358;0.724;2023-07-31T02:38:16;19.0;64.0
26641;DHT22;14269;47.358;0.724;2023-07-31T02:40:48;19.0;64.0
26641;DHT22;14269;47.358;0.724;2023-07-31T02:43:19;19.0;65.0
26641;DHT22;14269;47.358;0.724;2023-07-31T02:45:51;19.0;65.0
26641;DHT22;14269;47.358;0.724;2023-07-31T02:48:22;19.0;65.0
26641;DHT22;14269;47.358;0.724;2023-07-31T02:50:54;19.0;65.0
26641;DHT22;14269;47.358;0.724;2023-07-31T02:53:26;19.0;64.0
26641;DHT22;14269;47.358;0.724;2023-07-31T02:55:57;19.0;65.0
26641;DHT22;14269;47.358;0.724;2023-07-31T02:58:29;19.0;65.0
26641;DHT22;14269;47.358;0.724;2023-07-31T03:01:01;19.0;65.0
26641;DHT22;14269;47.358;0.724;2023-07-31T03:03:32;19.0;66.0
26641;DHT22;14269;47.358;0.724;2023-07-31T03:06:04;19.0;67.0
26641;DHT22;14269;47.358;0.724;2023-07-31T03:08:36;19.0;67.0
26641;DHT22;14269;47.358;0.724;2023-07-31T03:11:07;19.0;67.0
26641;DHT22;14269;47.358;0.724;2023-07-31T03:13:39;19.0;67.0
26641;DHT22;14269;47.358;0.724;2023-07-31T03:16:10;19.0;67.0
26641;DHT22;14269;47.358;0.724;2023-07-31T03:18:42;19.0;67.0
26641;DHT22;14269;47.358;0.724;2023-07-31T03:21:14;19.0;67.0
26641;DHT22;14269;47.358;0.724;2023-07-31T03:23:45;18.0;67.0
26641;DHT22;14269;47.358;0.724;2023-07-31T03:26:17;18.0;68.0
26641;DHT22;14269;47.358;0.724;2023-07-31T03:28:49;18.0;68.0
26641;DHT22;14269;47.358;0.724;2023-07-31T03:31:20;18.0;68.0
26641;DHT22;14269;47.358;0.724;2023-07-31T03:33:52;18.0;68.0
26641;DHT22;14269;47.358;0.724;2023-07-31T03:36:24;18.0;68.0
26641;DHT22;14269;47.358;0.724;2023-07-31T03:38:55;18.0;68.0
26641;DHT22;14269;47.358;0.724;2023-07-31T03:41:27;18.0;69.0
26641;DHT22;14269;47.358;0.724;2023-07-31T03:43:59;18.0;69.0
26641;DHT22;14269;47.358;0.724;2023-07-31T03:46:30;18.0;69.0
26641;DHT22;14269;47.358;0.724;2023-07-31T03:49:02;18.0;69.0
26641;DHT22;14269;47.358;0.724;2023-07-31T03:51:34;18.0;69.0
26641;DHT22;14269;47.358;0.724;2023-07-31T03:54:07;19.0;69.0
26641;DHT22;14269;47.358;0.724;2023-07-31T03:56:47;19.0;68.0
26641;DHT22;14269;47.358;0.724;2023-07-31T03:59:19;19.0;68.0
26641;DHT22;14269;47.358;0.724;2023-07-31T04:01:50;19.0;68.0
26641;DHT22;14269;47.358;0.724;2023-07-31T04:04:22;18.0;68.0
26641;DHT22;14269;47.358;0.724;2023-07-31T04:06:54;18.0;69.0
26641;DHT22;14269;47.358;0.724;2023-07-31T04:09:25;18.0;69.0
26641;DHT22;14269;47.358;0.724;2023-07-31T04:11:57;18.0;69.0
26641;DHT22;14269;47.358;0.724;2023-07-31T04:14:29;18.0;69.0
26641;DHT22;14269;47.358;0.724;2023-07-31T04:17:00;18.0;69.0
26641;DHT22;14269;47.358;0.724;2023-07-31T04:19:32;18.0;69.0
26641;DHT22;14269;47.358;0.724;2023-07-31T04:22:03;18.0;70.0
26641;DHT22;14269;47.358;0.724;2023-07-31T04:24:35;18.0;70.0
26641;DHT22;14269;47.358;0.724;2023-07-31T04:27:07;18.0;69.0
26641;DHT22;14269;47.358;0.724;2023-07-31T04:29:39;18.0;70.0
26641;DHT22;14269;47.358;0.724;2023-07-31T04:32:21;18.0;71.0
26641;DHT22;14269;47.358;0.724;2023-07-31T04:34:52;18.0;71.0
26641;DHT22;14269;47.358;0.724;2023-07-31T04:37:23;18.0;71.0
26641;DHT22;14269;47.358;0.724;2023-07-31T04:39:56;18.0;72.0
26641;DHT22;14269;47.358;0.724;2023-07-31T04:42:27;18.0;71.0
26641;DHT22;14269;47.358;0.724;2023-07-31T04:44:58;18.0;72.0
26641;DHT22;14269;47.358;0.724;2023-07-31T04:47:30;18.0;72.0
26641;DHT22;14269;47.358;0.724;2023-07-31T04:50:02;18.0;72.0
26641;DHT22;14269;47.358;0.724;2023-07-31T04:52:33;18.0;72.0
26641;DHT22;14269;47.358;0.724;2023-07-31T04:55:05;18.0;72.0
26641;DHT22;14269;47.358;0.724;2023-07-31T04:57:37;17.0;73.0
26641;DHT22;14269;47.358;0.724;2023-07-31T05:00:09;18.0;72.0
26641;DHT22;14269;47.358;0.724;2023-07-31T05:02:40;18.0;72.0
26641;DHT22;14269;47.358;0.724;2023-07-31T05:05:12;18.0;72.0
26641;DHT22;14269;47.358;0.724;2023-07-31T05:07:43;18.0;73.0
26641;DHT22;14269;47.358;0.724;2023-07-31T05:10:15;18.0;73.0
26641;DHT22;14269;47.358;0.724;2023-07-31T05:12:46;18.0;72.0
26641;DHT22;14269;47.358;0.724;2023-07-31T05:15:18;18.0;72.0
26641;DHT22;14269;47.358;0.724;2023-07-31T05:17:50;18.0;72.0
26641;DHT22;14269;47.358;0.724;2023-07-31T05:20:21;18.0;72.0
26641;DHT22;14269;47.358;0.724;2023-07-31T05:22:53;18.0;72.0
26641;DHT22;14269;47.358;0.724;2023-07-31T05:25:25;18.0;72.0
26641;DHT22;14269;47.358;0.724;2023-07-31T05:27:56;18.0;71.0
26641;DHT22;14269;47.358;0.724;2023-07-31T05:30:29;18.0;71.0
26641;DHT22;14269;47.358;0.724;2023-07-31T05:33:10;18.0;72.0
26641;DHT22;14269;47.358;0.724;2023-07-31T05:35:41;18.0;72.0
26641;DHT22;14269;47.358;0.724;2023-07-31T05:38:13;18.0;72.0
26641;DHT22;14269;47.358;0.724;2023-07-31T05:40:45;18.0;72.0
26641;DHT22;14269;47.358;0.724;2023-07-31T05:43:16;18.0;72.0
26641;DHT22;14269;47.358;0.724;2023-07-31T05:45:48;18.0;72.0
26641;DHT22;14269;47.358;0.724;2023-07-31T05:48:20;18.0;72.0
26641;DHT22;14269;47.358;0.724;2023-07-31T05:50:51;18.0;72.0
26641;DHT22;14269;47.358;0.724;2023-07-31T05:53:23;18.0;71.0
26641;DHT22;14269;47.358;0.724;2023-07-31T05:55:55;18.0;72.0
26641;DHT22;14269;47.358;0.724;2023-07-31T05:58:26;18.0;72.0
26641;DHT22;14269;47.358;0.724;2023-07-31T06:00:58;18.0;71.0
26641;DHT22;14269;47.358;0.724;2023-07-31T06:03:30;19.0;71.0
26641;DHT22;14269;47.358;0.724;2023-07-31T06:06:01;18.0;71.0
26641;DHT22;14269;47.358;0.724;2023-07-31T06:08:33;19.0;70.0
26641;DHT22;14269;47.358;0.724;2023-07-31T06:11:06;19.0;69.0
26641;DHT22;14269;47.358;0.724;2023-07-31T06:13:48;19.0;70.0
26641;DHT22;14269;47.358;0.724;2023-07-31T06:16:28;19.0;70.0
26641;DHT22;14269;47.358;0.724;2023-07-31T06:19:00;19.0;71.0
26641;DHT22;14269;47.358;0.724;2023-07-31T06:21:31;19.0;70.0
26641;DHT22;14269;47.358;0.724;2023-07-31T06:24:03;19.0;70.0
26641;DHT22;14269;47.358;0.724;2023-07-31T06:26:35;19.0;69.0
26641;DHT22;14269;47.358;0.724;2023-07-31T06:29:06;19.0;69.0
26641;DHT22;14269;47.358;0.724;2023-07-31T06:31:38;19.0;69.0
26641;DHT22;14269;47.358;0.724;2023-07-31T06:34:10;19.0;69.0
26641;DHT22;14269;47.358;0.724;2023-07-31T06:36:41;19.0;68.0
26641;DHT22;14269;47.358;0.724;2023-07-31T06:39:13;19.0;69.0
26641;DHT22;14269;47.358;0.724;2023-07-31T06:41:45;20.0;68.0
26641;DHT22;14269;47.358;0.724;2023-07-31T06:44:16;20.0;67.0
26641;DHT22;14269;47.358;0.724;2023-07-31T06:46:48;20.0;67.0
26641;DHT22;14269;47.358;0.724;2023-07-31T06:49:19;21.0;66.0
26641;DHT22;14269;47.358;0.724;2023-07-31T06:51:51;21.0;65.0
26641;DHT22;14269;47.358;0.724;2023-07-31T06:54:23;21.0;65.0
26641;DHT22;14269;47.358;0.724;2023-07-31T06:56:54;21.0;65.0
26641;DHT22;14269;47.358;0.724;2023-07-31T06:59:26;20.0;66.0
26641;DHT22;14269;47.358;0.724;2023-07-31T07:01:58;20.0;67.0
26641;DHT22;14269;47.358;0.724;2023-07-31T07:04:29;20.0;66.0
26641;DHT22;14269;47.358;0.724;2023-07-31T07:07:01;20.0;66.0
26641;DHT22;14269;47.358;0.724;2023-07-31T07:09:33;21.0;65.0
26641;DHT22;14269;47.358;0.724;2023-07-31T07:12:05;21.0;66.0
26641;DHT22;14269;47.358;0.724;2023-07-31T07:14:36;21.0;64.0
26641;DHT22;14269;47.358;0.724;2023-07-31T07:17:08;21.0;64.0
26641;DHT22;14269;47.358;0.724;2023-07-31T07:19:40;21.0;65.0
26641;DHT22;14269;47.358;0.724;2023-07-31T07:22:21;21.0;63.0
26641;DHT22;14269;47.358;0.724;2023-07-31T07:24:53;21.0;63.0
26641;DHT22;14269;47.358;0.724;2023-07-31T07:27:24;21.0;63.0
26641;DHT22;14269;47.358;0.724;2023-07-31T07:29:56;21.0;64.0
26641;DHT22;14269;47.358;0.724;2023-07-31T07:32:28;21.0;64.0
26641;DHT22;14269;47.358;0.724;2023-07-31T07:34:59;21.0;63.0
26641;DHT22;14269;47.358;0.724;2023-07-31T07:37:31;21.0;63.0
26641;DHT22;14269;47.358;0.724;2023-07-31T07:40:03;21.0;62.0
26641;DHT22;14269;47.358;0.724;2023-07-31T07:42:34;21.0;63.0
26641;DHT22;14269;47.358;0.724;2023-07-31T07:45:07;21.0;64.0
26641;DHT22;14269;47.358;0.724;2023-07-31T07:47:47;21.0;63.0
26641;DHT22;14269;47.358;0.724;2023-07-31T07:50:19;21.0;64.0
26641;DHT22;14269;47.358;0.724;2023-07-31T07:52:51;21.0;63.0
26641;DHT22;14269;47.358;0.724;2023-07-31T07:55:22;21.0;62.0
26641;DHT22;14269;47.358;0.724;2023-07-31T07:57:54;21.0;62.0
26641;DHT22;14269;47.358;0.724;2023-07-31T08:00:26;21.0;62.0
26641;DHT22;14269;47.358;0.724;2023-07-31T08:02:58;21.0;63.0
26641;DHT22;14269;47.358;0.724;2023-07-31T08:05:29;22.0;62.0
26641;DHT22;14269;47.358;0.724;2023-07-31T08:08:01;22.0;61.0
26641;DHT22;14269;47.358;0.724;2023-07-31T08:10:32;22.0;61.0
26641;DHT22;14269;47.358;0.724;2023-07-31T08:13:04;22.0;61.0
26641;DHT22;14269;47.358;0.724;2023-07-31T08:15:36;22.0;60.0
26641;DHT22;14269;47.358;0.724;2023-07-31T08:18:07;22.0;60.0
26641;DHT22;14269;47.358;0.724;2023-07-31T08:20:39;22.0;61.0
26641;DHT22;14269;47.358;0.724;2023-07-31T08:23:11;22.0;61.0
26641;DHT22;14269;47.358;0.724;2023-07-31T08:25:42;22.0;61.0
26641;DHT22;14269;47.358;0.724;2023-07-31T08:28:14;22.0;61.0
26641;DHT22;14269;47.358;0.724;2023-07-31T08:30:45;22.0;61.0
26641;DHT22;14269;47.358;0.724;2023-07-31T08:33:17;23.0;59.0
26641;DHT22;14269;47.358;0.724;2023-07-31T08:35:49;23.0;59.0
26641;DHT22;14269;47.358;0.724;2023-07-31T08:38:21;23.0;57.0
26641;DHT22;14269;47.358;0.724;2023-07-31T08:40:53;23.0;57.0
26641;DHT22;14269;47.358;0.724;2023-07-31T08:43:36;22.0;57.0
26641;DHT22;14269;47.358;0.724;2023-07-31T08:46:16;23.0;58.0
26641;DHT22;14269;47.358;0.724;2023-07-31T08:48:48;22.0;57.0
26641;DHT22;14269;47.358;0.724;2023-07-31T08:51:19;23.0;58.0
26641;DHT22;14269;47.358;0.724;2023-07-31T08:53:51;23.0;57.0
26641;DHT22;14269;47.358;0.724;2023-07-31T08:56:32;23.0;57.0
26641;DHT22;14269;47.358;0.724;2023-07-31T08:59:04;23.0;56.0
26641;DHT22;14269;47.358;0.724;2023-07-31T09:01:39;23.0;56.0
26641;DHT22;14269;47.358;0.724;2023-07-31T09:04:18;23.0;56.0
26641;DHT22;14269;47.358;0.724;2023-07-31T09:07:01;23.0;56.0
26641;DHT22;14269;47.358;0.724;2023-07-31T09:09:41;23.0;56.0
26641;DHT22;14269;47.358;0.724;2023-07-31T09:12:12;23.0;56.0
26641;DHT22;14269;47.358;0.724;2023-07-31T09:14:45;24.0;54.0
26641;DHT22;14269;47.358;0.724;2023-07-31T09:17:30;24.0;54.0
26641;DHT22;14269;47.358;0.724;2023-07-31T09:20:13;23.0;56.0
26641;DHT22;14269;47.358;0.724;2023-07-31T09:22:49;24.0;55.0
26641;DHT22;14269;47.358;0.724;2023-07-31T09:25:23;24.0;54.0
26641;DHT22;14269;47.358;0.724;2023-07-31T09:28:04;23.0;56.0
26641;DHT22;14269;47.358;0.724;2023-07-31T09:30:47;23.0;56.0
26641;DHT22;14269;47.358;0.724;2023-07-31T09:33:26;24.0;55.0
26641;DHT22;14269;47.358;0.724;2023-07-31T09:35:58;24.0;55.0
26641;DHT22;14269;47.358;0.724;2023-07-31T09:38:40;24.0;54.0
26641;DHT22;14269;47.358;0.724;2023-07-31T09:41:11;24.0;54.0
26641;DHT22;14269;47.358;0.724;2023-07-31T09:43:53;25.0;53.0
26641;DHT22;14269;47.358;0.724;2023-07-31T09:46:27;24.0;53.0
26641;DHT22;14269;47.358;0.724;2023-07-31T09:49:09;24.0;52.0
26641;DHT22;14269;47.358;0.724;2023-07-31T09:51:48;25.0;52.0
26641;DHT22;14269;47.358;0.724;2023-07-31T09:54:20;24.0;52.0
26641;DHT22;14269;47.358;0.724;2023-07-31T09:56:52;24.0;52.0
26641;DHT22;14269;47.358;0.724;2023-07-31T09:59:34;24.0;53.0
26641;DHT22;14269;47.358;0.724;2023-07-31T10:02:08;24.0;52.0
26641;DHT22;14269;47.358;0.724;2023-07-31T10:04:48;25.0;51.0
26641;DHT22;14269;47.358;0.724;2023-07-31T10:07:30;25.0;50.0
26641;DHT22;14269;47.358;0.724;2023-07-31T10:10:10;25.0;50.0
26641;DHT22;14269;47.358;0.724;2023-07-31T10:12:43;25.0;50.0
26641;DHT22;14269;47.358;0.724;2023-07-31T10:15:25;25.0;50.0
26641;DHT22;14269;47.358;0.724;2023-07-31T10:18:06;25.0;49.0
26641;DHT22;14269;47.358;0.724;2023-07-31T10:20:37;25.0;49.0
26641;DHT22;14269;47.358;0.724;2023-07-31T10:23:09;25.0;48.0
26641;DHT22;14269;47.358;0.724;2023-07-31T10:25:53;25.0;49.0
26641;DHT22;14269;47.358;0.724;2023-07-31T10:28:32;25.0;49.0
26641;DHT22;14269;47.358;0.724;2023-07-31T10:31:15;25.0;49.0
26641;DHT22;14269;47.358;0.724;2023-07-31T10:33:57;25.0;49.0
26641;DHT22;14269;47.358;0.724;2023-07-31T10:36:38;25.0;48.0
26641;DHT22;14269;47.358;0.724;2023-07-31T10:39:34;25.0;48.0
26641;DHT22;14269;47.358;0.724;2023-07-31T10:42:12;25.0;50.0
26641;DHT22;14269;47.358;0.724;2023-07-31T10:44:56;25.0;50.0
26641;DHT22;14269;47.358;0.724;2023-07-31T10:47:38;25.0;50.0
26641;DHT22;14269;47.358;0.724;2023-07-31T10:50:19;25.0;50.0
26641;DHT22;14269;47.358;0.724;2023-07-31T10:52:59;25.0;50.0
26641;DHT22;14269;47.358;0.724;2023-07-31T10:55:41;25.0;49.0
26641;DHT22;14269;47.358;0.724;2023-07-31T10:58:22;26.0;48.0
26641;DHT22;14269;47.358;0.724;2023-07-31T11:00:56;26.0;48.0
26641;DHT22;14269;47.358;0.724;2023-07-31T11:03:44;26.0;48.0
26641;DHT22;14269;47.358;0.724;2023-07-31T11:06:17;26.0;46.0
26641;DHT22;14269;47.358;0.724;2023-07-31T11:08:50;27.0;46.0
26641;DHT22;14269;47.358;0.724;2023-07-31T11:11:30;26.0;47.0
26641;DHT22;14269;47.358;0.724;2023-07-31T11:14:02;26.0;48.0
26641;DHT22;14269;47.358;0.724;2023-07-31T11:16:33;26.0;47.0
26641;DHT22;14269;47.358;0.724;2023-07-31T11:19:08;27.0;46.0
26641;DHT22;14269;47.358;0.724;2023-07-31T11:21:48;27.0;45.0
26641;DHT22;14269;47.358;0.724;2023-07-31T11:24:19;27.0;45.0
26641;DHT22;14269;47.358;0.724;2023-07-31T11:26:51;26.0;47.0
26641;DHT22;14269;47.358;0.724;2023-07-31T11:29:32;27.0;47.0
26641;DHT22;14269;47.358;0.724;2023-07-31T11:32:04;26.0;48.0
26641;DHT22;14269;47.358;0.724;2023-07-31T11:34:51;26.0;48.0
26641;DHT22;14269;47.358;0.724;2023-07-31T11:37:39;26.0;49.0
26641;DHT22;14269;47.358;0.724;2023-07-31T11:40:20;26.0;48.0
26641;DHT22;14269;47.358;0.724;2023-07-31T11:42:51;27.0;46.0
26641;DHT22;14269;47.358;0.724;2023-07-31T11:45:25;27.0;46.0
26641;DHT22;14269;47.358;0.724;2023-07-31T11:48:04;26.0;48.0
26641;DHT22;14269;47.358;0.724;2023-07-31T11:50:36;26.0;48.0
26641;DHT22;14269;47.358;0.724;2023-07-31T11:53:08;27.0;47.0
26641;DHT22;14269;47.358;0.724;2023-07-31T11:55:49;27.0;47.0
26641;DHT22;14269;47.358;0.724;2023-07-31T11:58:21;27.0;46.0
26641;DHT22;14269;47.358;0.724;2023-07-31T12:00:53;26.0;47.0
26641;DHT22;14269;47.358;0.724;2023-07-31T12:03:24;26.0;47.0
26641;DHT22;14269;47.358;0.724;2023-07-31T12:05:56;27.0;47.0
26641;DHT22;14269;47.358;0.724;2023-07-31T12:08:27;26.0;47.0
26641;DHT22;14269;47.358;0.724;2023-07-31T12:11:03;26.0;47.0
26641;DHT22;14269;47.358;0.724;2023-07-31T12:13:41;27.0;46.0
26641;DHT22;14269;47.358;0.724;2023-07-31T12:16:12;26.0;46.0
26641;DHT22;14269;47.358;0.724;2023-07-31T12:18:44;26.0;47.0
26641;DHT22;14269;47.358;0.724;2023-07-31T12:21:16;26.0;47.0
26641;DHT22;14269;47.358;0.724;2023-07-31T12:23:47;26.0;48.0
26641;DHT22;14269;47.358;0.724;2023-07-31T12:26:19;26.0;49.0
26641;DHT22;14269;47.358;0.724;2023-07-31T12:28:54;26.0;48.0
26641;DHT22;14269;47.358;0.724;2023-07-31T12:31:34;26.0;48.0
26641;DHT22;14269;47.358;0.724;2023-07-31T12:34:15;25.0;49.0
26641;DHT22;14269;47.358;0.724;2023-07-31T12:36:56;26.0;48.0
26641;DHT22;14269;47.358;0.724;2023-07-31T12:39:27;26.0;49.0
26641;DHT22;14269;47.358;0.724;2023-07-31T12:41:59;26.0;48.0
26641;DHT22;14269;47.358;0.724;2023-07-31T12:44:31;26.0;49.0
26641;DHT22;14269;47.358;0.724;2023-07-31T12:47:04;26.0;49.0
26641;DHT22;14269;47.358;0.724;2023-07-31T12:49:44;26.0;49.0
26641;DHT22;14269;47.358;0.724;2023-07-31T12:52:16;25.0;50.0
26641;DHT22;14269;47.358;0.724;2023-07-31T12:54:48;25.0;50.0
26641;DHT22;14269;47.358;0.724;2023-07-31T12:57:20;25.0;50.0
26641;DHT22;14269;47.358;0.724;2023-07-31T13:00:01;25.0;52.0
26641;DHT22;14269;47.358;0.724;2023-07-31T13:02:33;25.0;51.0
26641;DHT22;14269;47.358;0.724;2023-07-31T13:05:05;25.0;51.0
26641;DHT22;14269;47.358;0.724;2023-07-31T13:07:36;26.0;49.0
26641;DHT22;14269;47.358;0.724;2023-07-31T13:10:08;26.0;49.0
26641;DHT22;14269;47.358;0.724;2023-07-31T13:12:39;25.0;49.0
26641;DHT22;14269;47.358;0.724;2023-07-31T13:15:12;26.0;48.0
26641;DHT22;14269;47.358;0.724;2023-07-31T13:17:53;26.0;47.0
26641;DHT22;14269;47.358;0.724;2023-07-31T13:20:24;25.0;48.0
26641;DHT22;14269;47.358;0.724;2023-07-31T13:22:56;25.0;48.0
26641;DHT22;14269;47.358;0.724;2023-07-31T13:25:28;25.0;48.0
26641;DHT22;14269;47.358;0.724;2023-07-31T13:27:59;25.0;49.0
26641;DHT22;14269;47.358;0.724;2023-07-31T13:30:31;25.0;48.0
26641;DHT22;14269;47.358;0.724;2023-07-31T13:33:02;25.0;49.0
26641;DHT22;14269;47.358;0.724;2023-07-31T13:35:34;25.0;49.0
26641;DHT22;14269;47.358;0.724;2023-07-31T13:38:07;25.0;49.0
26641;DHT22;14269;47.358;0.724;2023-07-31T13:40:37;25.0;49.0
26641;DHT22;14269;47.358;0.724;2023-07-31T13:43:09;25.0;49.0
26641;DHT22;14269;47.358;0.724;2023-07-31T13:45:41;25.0;50.0
26641;DHT22;14269;47.358;0.724;2023-07-31T13:48:12;25.0;49.0
26641;DHT22;14269;47.358;0.724;2023-07-31T13:50:44;26.0;49.0
26641;DHT22;14269;47.358;0.724;2023-07-31T13:53:16;26.0;47.0
26641;DHT22;14269;47.358;0.724;2023-07-31T13:55:49;26.0;48.0
26641;DHT22;14269;47.358;0.724;2023-07-31T13:58:29;26.0;48.0
26641;DHT22;14269;47.358;0.724;2023-07-31T14:01:01;26.0;47.0
26641;DHT22;14269;47.358;0.724;2023-07-31T14:03:32;26.0;48.0
26641;DHT22;14269;47.358;0.724;2023-07-31T14:06:04;27.0;47.0
26641;DHT22;14269;47.358;0.724;2023-07-31T14:08:36;26.0;47.0
26641;DHT22;14269;47.358;0.724;2023-07-31T14:11:07;27.0;46.0
26641;DHT22;14269;47.358;0.724;2023-07-31T14:13:39;27.0;46.0
26641;DHT22;14269;47.358;0.724;2023-07-31T14:16:11;27.0;45.0
26641;DHT22;14269;47.358;0.724;2023-07-31T14:18:42;27.0;46.0
26641;DHT22;14269;47.358;0.724;2023-07-31T14:21:14;27.0;46.0
26641;DHT22;14269;47.358;0.724;2023-07-31T14:23:45;27.0;46.0
26641;DHT22;14269;47.358;0.724;2023-07-31T14:26:17;27.0;45.0
26641;DHT22;14269;47.358;0.724;2023-07-31T14:28:49;26.0;46.0
26641;DHT22;14269;47.358;0.724;2023-07-31T14:31:20;26.0;46.0
26641;DHT22;14269;47.358;0.724;2023-07-31T14:33:52;26.0;47.0
26641;DHT22;14269;47.358;0.724;2023-07-31T14:36:24;26.0;47.0
26641;DHT22;14269;47.358;0.724;2023-07-31T14:38:55;26.0;47.0
26641;DHT22;14269;47.358;0.724;2023-07-31T14:41:27;26.0;47.0
26641;DHT22;14269;47.358;0.724;2023-07-31T14:43:59;26.0;47.0
26641;DHT22;14269;47.358;0.724;2023-07-31T14:46:30;26.0;47.0
26641;DHT22;14269;47.358;0.724;2023-07-31T14:49:02;26.0;47.0
26641;DHT22;14269;47.358;0.724;2023-07-31T14:51:34;26.0;46.0
26641;DHT22;14269;47.358;0.724;2023-07-31T14:54:05;26.0;47.0
26641;DHT22;14269;47.358;0.724;2023-07-31T14:56:37;27.0;46.0
26641;DHT22;14269;47.358;0.724;2023-07-31T14:59:10;27.0;46.0
26641;DHT22;14269;47.358;0.724;2023-07-31T15:01:50;27.0;46.0
26641;DHT22;14269;47.358;0.724;2023-07-31T15:04:22;26.0;47.0
26641;DHT22;14269;47.358;0.724;2023-07-31T15:06:54;26.0;47.0
26641;DHT22;14269;47.358;0.724;2023-07-31T15:09:25;27.0;46.0
26641;DHT22;14269;47.358;0.724;2023-07-31T15:11:57;26.0;47.0
26641;DHT22;14269;47.358;0.724;2023-07-31T15:14:31;27.0;47.0
26641;DHT22;14269;47.358;0.724;2023-07-31T15:17:10;26.0;48.0
26641;DHT22;14269;47.358;0.724;2023-07-31T15:19:42;26.0;47.0
26641;DHT22;14269;47.358;0.724;2023-07-31T15:22:14;26.0;47.0
26641;DHT22;14269;47.358;0.724;2023-07-31T15:24:45;26.0;46.0
26641;DHT22;14269;47.358;0.724;2023-07-31T15:27:17;26.0;47.0
26641;DHT22;14269;47.358;0.724;2023-07-31T15:29:49;26.0;47.0
26641;DHT22;14269;47.358;0.724;2023-07-31T15:32:31;26.0;47.0
26641;DHT22;14269;47.358;0.724;2023-07-31T15:35:02;26.0;46.0
26641;DHT22;14269;47.358;0.724;2023-07-31T15:37:34;26.0;47.0
26641;DHT22;14269;47.358;0.724;2023-07-31T15:40:06;26.0;47.0
26641;DHT22;14269;47.358;0.724;2023-07-31T15:42:47;26.0;47.0
26641;DHT22;14269;47.358;0.724;2023-07-31T15:45:19;26.0;47.0
26641;DHT22;14269;47.358;0.724;2023-07-31T15:47:50;27.0;47.0
26641;DHT22;14269;47.358;0.724;2023-07-31T15:50:22;26.0;47.0
26641;DHT22;14269;47.358;0.724;2023-07-31T15:52:54;27.0;47.0
26641;DHT22;14269;47.358;0.724;2023-07-31T15:55:25;26.0;46.0
26641;DHT22;14269;47.358;0.724;2023-07-31T15:57:57;26.0;47.0
26641;DHT22;14269;47.358;0.724;2023-07-31T16:00:28;26.0;47.0
26641;DHT22;14269;47.358;0.724;2023-07-31T16:03:00;26.0;48.0
26641;DHT22;14269;47.358;0.724;2023-07-31T16:05:32;26.0;47.0
26641;DHT22;14269;47.358;0.724;2023-07-31T16:08:04;26.0;47.0
26641;DHT22;14269;47.358;0.724;2023-07-31T16:10:35;26.0;47.0
26641;DHT22;14269;47.358;0.724;2023-07-31T16:13:07;26.0;48.0
26641;DHT22;14269;47.358;0.724;2023-07-31T16:15:38;26.0;48.0
26641;DHT22;14269;47.358;0.724;2023-07-31T16:18:10;26.0;48.0
26641;DHT22;14269;47.358;0.724;2023-07-31T16:20:42;26.0;48.0
26641;DHT22;14269;47.358;0.724;2023-07-31T16:23:13;26.0;47.0
26641;DHT22;14269;47.358;0.724;2023-07-31T16:25:45;26.0;48.0
26641;DHT22;14269;47.358;0.724;2023-07-31T16:28:17;26.0;49.0
26641;DHT22;14269;47.358;0.724;2023-07-31T16:30:48;26.0;49.0
26641;DHT22;14269;47.358;0.724;2023-07-31T16:33:20;25.0;49.0
26641;DHT22;14269;47.358;0.724;2023-07-31T16:35:52;26.0;48.0
26641;DHT22;14269;47.358;0.724;2023-07-31T16:38:23;26.0;49.0
26641;DHT22;14269;47.358;0.724;2023-07-31T16:40:55;26.0;49.0
26641;DHT22;14269;47.358;0.724;2023-07-31T16:43:28;25.0;49.0